sensor_id;sensor_type;location;lat;lon;timestamp;P1;durP1;ratioP1;P2;durP2;ratioP2
9156;SDS011;4613;48.392;9.998;2023-07-09T00:02:43;2.33;;;2.10;;
9156;SDS011;4613;48.392;9.998;2023-07-09T00:05:32;2.37;;;1.97;;
9156;SDS011;4613;48.392;9.998;2023-07-09T00:08:28;2.20;;;2.00;;
9156;SDS011;4613;48.392;9.998;2023-07-09T00:11:20;3.03;;;2.40;;
9156;SDS011;4613;48.392;9.998;2023-07-09T00:14:13;3.50;;;2.33;;
9156;SDS011;4613;48.392;9.998;2023-07-09T00:17:07;5.67;;;2.13;;
9156;SDS011;4613;48.392;9.998;2023-07-09T00:20:00;3.13;;;2.40;;
9156;SDS011;4613;48.392;9.998;2023-07-09T00:22:53;5.07;;;2.17;;
9156;SDS011;4613;48.392;9.998;2023-07-09T00:25:43;3.30;;;2.13;;
9156;SDS011;4613;48.392;9.998;2023-07-09T00:28:33;4.00;;;2.20;;
9156;SDS011;4613;48.392;9.998;2023-07-09T00:31:23;5.57;;;2.00;;
9156;SDS011;4613;48.392;9.998;2023-07-09T00:34:13;2.93;;;1.90;;
9156;SDS011;4613;48.392;9.998;2023-07-09T00:37:10;2.50;;;1.80;;
9156;SDS011;4613;48.392;9.998;2023-07-09T00:40:01;2.83;;;2.20;;
9156;SDS011;4613;48.392;9.998;2023-07-09T00:42:52;2.43;;;2.00;;
9156;SDS011;4613;48.392;9.998;2023-07-09T00:45:43;2.90;;;2.07;;
9156;SDS011;4613;48.392;9.998;2023-07-09T00:48:33;3.40;;;2.40;;
9156;SDS011;4613;48.392;9.998;2023-07-09T00:51:22;2.80;;;2.27;;
9156;SDS011;4613;48.392;9.998;2023-07-09T00:54:26;2.80;;;2.17;;
9156;SDS011;4613;48.392;9.998;2023-07-09T00:57:30;2.97;;;2.13;;
9156;SDS011;4613;48.392;9.998;2023-07-09T01:00:20;2.80;;;2.10;;
9156;SDS011;4613;48.392;9.998;2023-07-09T01:03:10;3.30;;;2.27;;
9156;SDS011;4613;48.392;9.998;2023-07-09T01:06:05;4.00;;;2.43;;
9156;SDS011;4613;48.392;9.998;2023-07-09T01:08:54;2.33;;;1.93;;
9156;SDS011;4613;48.392;9.998;2023-07-09T01:11:44;2.83;;;1.93;;
9156;SDS011;4613;48.392;9.998;2023-07-09T01:14:33;4.70;;;2.40;;
9156;SDS011;4613;48.392;9.998;2023-07-09T01:17:26;2.70;;;2.03;;
9156;SDS011;4613;48.392;9.998;2023-07-09T01:20:17;3.90;;;2.37;;
9156;SDS011;4613;48.392;9.998;2023-07-09T01:23:09;2.40;;;2.13;;
9156;SDS011;4613;48.392;9.998;2023-07-09T01:26:05;3.00;;;2.10;;
9156;SDS011;4613;48.392;9.998;2023-07-09T01:28:56;5.07;;;2.20;;
9156;SDS011;4613;48.392;9.998;2023-07-09T01:31:45;2.23;;;1.90;;
9156;SDS011;4613;48.392;9.998;2023-07-09T01:34:34;5.00;;;2.10;;
9156;SDS011;4613;48.392;9.998;2023-07-09T01:37:25;2.40;;;2.00;;
9156;SDS011;4613;48.392;9.998;2023-07-09T01:40:17;2.07;;;1.93;;
9156;SDS011;4613;48.392;9.998;2023-07-09T01:43:07;2.40;;;2.13;;
9156;SDS011;4613;48.392;9.998;2023-07-09T01:45:57;3.63;;;1.90;;
9156;SDS011;4613;48.392;9.998;2023-07-09T01:48:49;4.40;;;2.23;;
9156;SDS011;4613;48.392;9.998;2023-07-09T01:51:41;2.53;;;2.33;;
9156;SDS011;4613;48.392;9.998;2023-07-09T01:54:31;3.83;;;2.30;;
9156;SDS011;4613;48.392;9.998;2023-07-09T01:57:25;2.77;;;2.00;;
9156;SDS011;4613;48.392;9.998;2023-07-09T02:00:21;2.83;;;2.03;;
9156;SDS011;4613;48.392;9.998;2023-07-09T02:03:10;2.00;;;1.80;;
9156;SDS011;4613;48.392;9.998;2023-07-09T02:06:00;2.37;;;2.10;;
9156;SDS011;4613;48.392;9.998;2023-07-09T02:08:51;1.70;;;1.60;;
9156;SDS011;4613;48.392;9.998;2023-07-09T02:11:40;2.57;;;2.30;;
9156;SDS011;4613;48.392;9.998;2023-07-09T02:14:29;2.57;;;1.93;;
9156;SDS011;4613;48.392;9.998;2023-07-09T02:17:18;2.47;;;2.07;;
9156;SDS011;4613;48.392;9.998;2023-07-09T02:20:08;2.10;;;1.90;;
9156;SDS011;4613;48.392;9.998;2023-07-09T02:22:58;2.20;;;1.90;;
9156;SDS011;4613;48.392;9.998;2023-07-09T02:25:47;3.33;;;2.10;;
9156;SDS011;4613;48.392;9.998;2023-07-09T02:28:37;2.43;;;2.20;;
9156;SDS011;4613;48.392;9.998;2023-07-09T02:31:26;2.00;;;1.83;;
9156;SDS011;4613;48.392;9.998;2023-07-09T02:34:18;3.17;;;1.93;;
9156;SDS011;4613;48.392;9.998;2023-07-09T02:37:09;2.27;;;2.07;;
9156;SDS011;4613;48.392;9.998;2023-07-09T02:39:58;3.17;;;2.50;;
9156;SDS011;4613;48.392;9.998;2023-07-09T02:42:47;2.87;;;2.50;;
9156;SDS011;4613;48.392;9.998;2023-07-09T02:45:40;2.80;;;2.30;;
9156;SDS011;4613;48.392;9.998;2023-07-09T02:48:29;3.20;;;2.57;;
9156;SDS011;4613;48.392;9.998;2023-07-09T02:51:18;3.10;;;2.20;;
9156;SDS011;4613;48.392;9.998;2023-07-09T02:54:08;2.53;;;2.33;;
9156;SDS011;4613;48.392;9.998;2023-07-09T02:56:57;2.67;;;2.30;;
9156;SDS011;4613;48.392;9.998;2023-07-09T02:59:46;3.10;;;2.53;;
9156;SDS011;4613;48.392;9.998;2023-07-09T03:02:35;3.20;;;2.40;;
9156;SDS011;4613;48.392;9.998;2023-07-09T03:05:24;2.60;;;2.40;;
9156;SDS011;4613;48.392;9.998;2023-07-09T03:08:14;6.10;;;3.37;;
9156;SDS011;4613;48.392;9.998;2023-07-09T03:11:08;3.10;;;2.53;;
9156;SDS011;4613;48.392;9.998;2023-07-09T03:14:00;2.67;;;2.43;;
9156;SDS011;4613;48.392;9.998;2023-07-09T03:16:50;2.60;;;2.37;;
9156;SDS011;4613;48.392;9.998;2023-07-09T03:19:40;2.67;;;2.40;;
9156;SDS011;4613;48.392;9.998;2023-07-09T03:22:29;2.77;;;2.40;;
9156;SDS011;4613;48.392;9.998;2023-07-09T03:25:17;5.07;;;2.20;;
9156;SDS011;4613;48.392;9.998;2023-07-09T03:28:07;3.70;;;2.30;;
9156;SDS011;4613;48.392;9.998;2023-07-09T03:30:56;2.23;;;2.00;;
9156;SDS011;4613;48.392;9.998;2023-07-09T03:33:46;4.47;;;2.07;;
9156;SDS011;4613;48.392;9.998;2023-07-09T03:36:36;2.40;;;2.20;;
9156;SDS011;4613;48.392;9.998;2023-07-09T03:39:26;4.80;;;2.23;;
9156;SDS011;4613;48.392;9.998;2023-07-09T03:42:15;2.07;;;1.80;;
9156;SDS011;4613;48.392;9.998;2023-07-09T03:45:05;2.37;;;1.80;;
9156;SDS011;4613;48.392;9.998;2023-07-09T03:47:54;2.20;;;2.00;;
9156;SDS011;4613;48.392;9.998;2023-07-09T03:50:45;2.10;;;1.90;;
9156;SDS011;4613;48.392;9.998;2023-07-09T03:53:35;2.30;;;2.10;;
9156;SDS011;4613;48.392;9.998;2023-07-09T03:56:24;3.17;;;2.40;;
9156;SDS011;4613;48.392;9.998;2023-07-09T03:59:13;1.90;;;1.80;;
9156;SDS011;4613;48.392;9.998;2023-07-09T04:02:03;4.13;;;2.33;;
9156;SDS011;4613;48.392;9.998;2023-07-09T04:04:53;5.10;;;2.43;;
9156;SDS011;4613;48.392;9.998;2023-07-09T04:07:41;3.67;;;2.13;;
9156;SDS011;4613;48.392;9.998;2023-07-09T04:10:31;2.87;;;2.03;;
9156;SDS011;4613;48.392;9.998;2023-07-09T04:13:22;2.67;;;2.00;;
9156;SDS011;4613;48.392;9.998;2023-07-09T04:16:11;2.63;;;2.20;;
9156;SDS011;4613;48.392;9.998;2023-07-09T04:19:00;2.53;;;1.87;;
9156;SDS011;4613;48.392;9.998;2023-07-09T04:21:50;3.60;;;2.10;;
9156;SDS011;4613;48.392;9.998;2023-07-09T04:24:39;3.57;;;2.00;;
9156;SDS011;4613;48.392;9.998;2023-07-09T04:27:28;2.23;;;2.03;;
9156;SDS011;4613;48.392;9.998;2023-07-09T04:30:19;2.17;;;1.90;;
9156;SDS011;4613;48.392;9.998;2023-07-09T04:33:08;1.83;;;1.70;;
9156;SDS011;4613;48.392;9.998;2023-07-09T04:35:58;2.40;;;1.97;;
9156;SDS011;4613;48.392;9.998;2023-07-09T04:38:47;3.47;;;2.03;;
9156;SDS011;4613;48.392;9.998;2023-07-09T04:41:37;3.13;;;2.20;;
9156;SDS011;4613;48.392;9.998;2023-07-09T04:44:26;3.23;;;2.20;;
9156;SDS011;4613;48.392;9.998;2023-07-09T04:47:15;2.03;;;1.83;;
9156;SDS011;4613;48.392;9.998;2023-07-09T04:50:05;3.13;;;2.03;;
9156;SDS011;4613;48.392;9.998;2023-07-09T04:52:56;3.37;;;2.27;;
9156;SDS011;4613;48.392;9.998;2023-07-09T04:55:46;3.60;;;2.20;;
9156;SDS011;4613;48.392;9.998;2023-07-09T04:58:35;2.03;;;1.90;;
9156;SDS011;4613;48.392;9.998;2023-07-09T05:01:24;2.50;;;2.30;;
9156;SDS011;4613;48.392;9.998;2023-07-09T05:04:14;3.87;;;2.23;;
9156;SDS011;4613;48.392;9.998;2023-07-09T05:07:03;2.67;;;2.47;;
9156;SDS011;4613;48.392;9.998;2023-07-09T05:09:52;4.27;;;2.70;;
9156;SDS011;4613;48.392;9.998;2023-07-09T05:12:52;3.13;;;2.83;;
9156;SDS011;4613;48.392;9.998;2023-07-09T05:15:45;2.90;;;2.33;;
9156;SDS011;4613;48.392;9.998;2023-07-09T05:18:36;3.83;;;1.90;;
9156;SDS011;4613;48.392;9.998;2023-07-09T05:21:25;2.57;;;2.37;;
9156;SDS011;4613;48.392;9.998;2023-07-09T05:24:14;2.87;;;2.10;;
9156;SDS011;4613;48.392;9.998;2023-07-09T05:27:04;2.80;;;2.30;;
9156;SDS011;4613;48.392;9.998;2023-07-09T05:29:53;3.30;;;2.60;;
9156;SDS011;4613;48.392;9.998;2023-07-09T05:32:42;2.77;;;2.57;;
9156;SDS011;4613;48.392;9.998;2023-07-09T05:35:31;2.50;;;2.30;;
9156;SDS011;4613;48.392;9.998;2023-07-09T05:38:20;3.17;;;2.70;;
9156;SDS011;4613;48.392;9.998;2023-07-09T05:41:09;3.03;;;2.43;;
9156;SDS011;4613;48.392;9.998;2023-07-09T05:43:59;3.43;;;3.13;;
9156;SDS011;4613;48.392;9.998;2023-07-09T05:46:48;3.03;;;2.70;;
9156;SDS011;4613;48.392;9.998;2023-07-09T05:49:38;4.40;;;2.70;;
9156;SDS011;4613;48.392;9.998;2023-07-09T05:52:27;3.00;;;2.47;;
9156;SDS011;4613;48.392;9.998;2023-07-09T05:55:18;3.37;;;2.40;;
9156;SDS011;4613;48.392;9.998;2023-07-09T05:58:07;3.10;;;2.80;;
9156;SDS011;4613;48.392;9.998;2023-07-09T06:00:56;3.37;;;3.00;;
9156;SDS011;4613;48.392;9.998;2023-07-09T06:03:46;3.33;;;3.03;;
9156;SDS011;4613;48.392;9.998;2023-07-09T06:06:35;4.53;;;3.53;;
9156;SDS011;4613;48.392;9.998;2023-07-09T06:09:24;4.47;;;3.33;;
9156;SDS011;4613;48.392;9.998;2023-07-09T06:12:13;4.57;;;3.00;;
9156;SDS011;4613;48.392;9.998;2023-07-09T06:15:03;3.20;;;2.90;;
9156;SDS011;4613;48.392;9.998;2023-07-09T06:17:52;3.73;;;3.00;;
9156;SDS011;4613;48.392;9.998;2023-07-09T06:20:46;3.20;;;2.90;;
9156;SDS011;4613;48.392;9.998;2023-07-09T06:23:37;2.83;;;2.53;;
9156;SDS011;4613;48.392;9.998;2023-07-09T06:26:26;3.67;;;2.63;;
9156;SDS011;4613;48.392;9.998;2023-07-09T06:29:15;2.50;;;2.30;;
9156;SDS011;4613;48.392;9.998;2023-07-09T06:32:05;3.87;;;2.70;;
9156;SDS011;4613;48.392;9.998;2023-07-09T06:34:54;2.83;;;2.30;;
9156;SDS011;4613;48.392;9.998;2023-07-09T06:37:43;3.03;;;2.70;;
9156;SDS011;4613;48.392;9.998;2023-07-09T06:40:32;2.27;;;2.10;;
9156;SDS011;4613;48.392;9.998;2023-07-09T06:43:21;3.70;;;2.90;;
9156;SDS011;4613;48.392;9.998;2023-07-09T06:46:12;3.93;;;2.67;;
9156;SDS011;4613;48.392;9.998;2023-07-09T06:49:03;3.00;;;2.50;;
9156;SDS011;4613;48.392;9.998;2023-07-09T06:51:55;3.73;;;2.50;;
9156;SDS011;4613;48.392;9.998;2023-07-09T06:54:45;2.60;;;2.40;;
9156;SDS011;4613;48.392;9.998;2023-07-09T06:57:34;2.83;;;2.53;;
9156;SDS011;4613;48.392;9.998;2023-07-09T07:00:23;3.30;;;2.60;;
9156;SDS011;4613;48.392;9.998;2023-07-09T07:03:13;2.50;;;2.30;;
9156;SDS011;4613;48.392;9.998;2023-07-09T07:06:02;2.47;;;2.27;;
9156;SDS011;4613;48.392;9.998;2023-07-09T07:08:52;4.70;;;2.40;;
9156;SDS011;4613;48.392;9.998;2023-07-09T07:11:41;2.63;;;2.30;;
9156;SDS011;4613;48.392;9.998;2023-07-09T07:14:30;2.43;;;2.23;;
9156;SDS011;4613;48.392;9.998;2023-07-09T07:17:20;3.13;;;2.27;;
9156;SDS011;4613;48.392;9.998;2023-07-09T07:20:10;3.17;;;2.10;;
9156;SDS011;4613;48.392;9.998;2023-07-09T07:23:00;2.53;;;2.30;;
9156;SDS011;4613;48.392;9.998;2023-07-09T07:25:50;3.00;;;2.40;;
9156;SDS011;4613;48.392;9.998;2023-07-09T07:28:40;2.43;;;2.20;;
9156;SDS011;4613;48.392;9.998;2023-07-09T07:31:29;3.03;;;2.40;;
9156;SDS011;4613;48.392;9.998;2023-07-09T07:34:19;3.00;;;2.70;;
9156;SDS011;4613;48.392;9.998;2023-07-09T07:37:08;3.27;;;2.83;;
9156;SDS011;4613;48.392;9.998;2023-07-09T07:39:57;2.70;;;2.50;;
9156;SDS011;4613;48.392;9.998;2023-07-09T07:42:47;3.37;;;2.90;;
9156;SDS011;4613;48.392;9.998;2023-07-09T07:45:39;2.53;;;2.33;;
9156;SDS011;4613;48.392;9.998;2023-07-09T07:48:29;3.13;;;2.40;;
9156;SDS011;4613;48.392;9.998;2023-07-09T07:51:18;2.10;;;1.90;;
9156;SDS011;4613;48.392;9.998;2023-07-09T07:54:09;2.40;;;2.00;;
9156;SDS011;4613;48.392;9.998;2023-07-09T07:56:58;2.80;;;2.13;;
9156;SDS011;4613;48.392;9.998;2023-07-09T07:59:48;2.57;;;2.20;;
9156;SDS011;4613;48.392;9.998;2023-07-09T08:02:37;2.03;;;1.90;;
9156;SDS011;4613;48.392;9.998;2023-07-09T08:05:26;2.23;;;2.00;;
9156;SDS011;4613;48.392;9.998;2023-07-09T08:08:15;1.77;;;1.50;;
9156;SDS011;4613;48.392;9.998;2023-07-09T08:11:06;1.77;;;1.67;;
9156;SDS011;4613;48.392;9.998;2023-07-09T08:13:56;2.10;;;1.90;;
9156;SDS011;4613;48.392;9.998;2023-07-09T08:16:46;2.20;;;2.00;;
9156;SDS011;4613;48.392;9.998;2023-07-09T08:19:49;2.40;;;1.90;;
9156;SDS011;4613;48.392;9.998;2023-07-09T08:22:41;1.70;;;1.60;;
9156;SDS011;4613;48.392;9.998;2023-07-09T08:25:31;3.10;;;2.20;;
9156;SDS011;4613;48.392;9.998;2023-07-09T08:28:21;2.20;;;2.00;;
9156;SDS011;4613;48.392;9.998;2023-07-09T08:31:10;3.87;;;1.90;;
9156;SDS011;4613;48.392;9.998;2023-07-09T08:34:01;2.27;;;2.07;;
9156;SDS011;4613;48.392;9.998;2023-07-09T08:36:53;3.57;;;1.93;;
9156;SDS011;4613;48.392;9.998;2023-07-09T08:39:42;2.13;;;1.87;;
9156;SDS011;4613;48.392;9.998;2023-07-09T08:42:34;1.87;;;1.77;;
9156;SDS011;4613;48.392;9.998;2023-07-09T08:45:33;2.00;;;1.90;;
9156;SDS011;4613;48.392;9.998;2023-07-09T08:48:34;2.20;;;1.83;;
9156;SDS011;4613;48.392;9.998;2023-07-09T08:51:37;2.07;;;1.97;;
9156;SDS011;4613;48.392;9.998;2023-07-09T08:54:29;1.90;;;1.80;;
9156;SDS011;4613;48.392;9.998;2023-07-09T08:57:25;1.80;;;1.67;;
9156;SDS011;4613;48.392;9.998;2023-07-09T09:00:28;3.50;;;2.37;;
9156;SDS011;4613;48.392;9.998;2023-07-09T09:06:21;2.20;;;2.00;;
9156;SDS011;4613;48.392;9.998;2023-07-09T09:09:15;2.10;;;1.90;;
9156;SDS011;4613;48.392;9.998;2023-07-09T09:12:25;2.27;;;2.07;;
9156;SDS011;4613;48.392;9.998;2023-07-09T09:15:21;2.10;;;2.00;;
9156;SDS011;4613;48.392;9.998;2023-07-09T09:18:23;2.47;;;1.80;;
9156;SDS011;4613;48.392;9.998;2023-07-09T09:21:24;1.70;;;1.60;;
9156;SDS011;4613;48.392;9.998;2023-07-09T09:27:24;2.17;;;1.77;;
9156;SDS011;4613;48.392;9.998;2023-07-09T09:30:15;2.03;;;1.70;;
9156;SDS011;4613;48.392;9.998;2023-07-09T09:33:07;2.10;;;1.90;;
9156;SDS011;4613;48.392;9.998;2023-07-09T09:36:02;1.80;;;1.70;;
9156;SDS011;4613;48.392;9.998;2023-07-09T09:38:53;2.00;;;1.83;;
9156;SDS011;4613;48.392;9.998;2023-07-09T09:41:43;2.00;;;1.80;;
9156;SDS011;4613;48.392;9.998;2023-07-09T09:44:34;1.90;;;1.80;;
9156;SDS011;4613;48.392;9.998;2023-07-09T09:47:25;2.27;;;1.60;;
9156;SDS011;4613;48.392;9.998;2023-07-09T09:50:18;2.13;;;1.93;;
9156;SDS011;4613;48.392;9.998;2023-07-09T09:53:12;1.93;;;1.83;;
9156;SDS011;4613;48.392;9.998;2023-07-09T09:56:11;2.50;;;2.20;;
9156;SDS011;4613;48.392;9.998;2023-07-09T09:59:13;2.37;;;1.73;;
9156;SDS011;4613;48.392;9.998;2023-07-09T10:02:15;2.00;;;1.80;;
9156;SDS011;4613;48.392;9.998;2023-07-09T10:05:16;2.37;;;2.10;;
9156;SDS011;4613;48.392;9.998;2023-07-09T10:08:16;2.23;;;1.67;;
9156;SDS011;4613;48.392;9.998;2023-07-09T10:14:19;2.37;;;1.90;;
9156;SDS011;4613;48.392;9.998;2023-07-09T10:20:24;1.80;;;1.70;;
9156;SDS011;4613;48.392;9.998;2023-07-09T10:23:38;2.87;;;1.60;;
9156;SDS011;4613;48.392;9.998;2023-07-09T10:26:44;3.20;;;1.47;;
9156;SDS011;4613;48.392;9.998;2023-07-09T10:33:08;1.70;;;1.60;;
9156;SDS011;4613;48.392;9.998;2023-07-09T10:39:28;1.97;;;1.77;;
9156;SDS011;4613;48.392;9.998;2023-07-09T10:42:40;1.70;;;1.60;;
9156;SDS011;4613;48.392;9.998;2023-07-09T10:45:40;1.90;;;1.70;;
9156;SDS011;4613;48.392;9.998;2023-07-09T10:48:34;1.73;;;1.63;;
9156;SDS011;4613;48.392;9.998;2023-07-09T10:51:28;1.63;;;1.50;;
9156;SDS011;4613;48.392;9.998;2023-07-09T11:00:48;1.53;;;1.43;;
9156;SDS011;4613;48.392;9.998;2023-07-09T11:03:51;1.50;;;1.40;;
9156;SDS011;4613;48.392;9.998;2023-07-09T11:06:46;1.70;;;1.60;;
9156;SDS011;4613;48.392;9.998;2023-07-09T11:09:40;1.50;;;1.40;;
9156;SDS011;4613;48.392;9.998;2023-07-09T11:12:38;1.63;;;1.53;;
9156;SDS011;4613;48.392;9.998;2023-07-09T11:15:31;2.03;;;1.30;;
9156;SDS011;4613;48.392;9.998;2023-07-09T11:18:25;1.60;;;1.50;;
9156;SDS011;4613;48.392;9.998;2023-07-09T11:21:18;1.50;;;1.40;;
9156;SDS011;4613;48.392;9.998;2023-07-09T11:24:24;2.00;;;1.70;;
9156;SDS011;4613;48.392;9.998;2023-07-09T11:27:24;1.70;;;1.60;;
9156;SDS011;4613;48.392;9.998;2023-07-09T11:30:18;1.80;;;1.60;;
9156;SDS011;4613;48.392;9.998;2023-07-09T11:33:16;1.70;;;1.33;;
9156;SDS011;4613;48.392;9.998;2023-07-09T11:38:58;3.43;;;1.80;;
9156;SDS011;4613;48.392;9.998;2023-07-09T11:41:47;1.47;;;1.37;;
9156;SDS011;4613;48.392;9.998;2023-07-09T11:44:36;1.63;;;1.40;;
9156;SDS011;4613;48.392;9.998;2023-07-09T11:47:53;1.50;;;1.40;;
9156;SDS011;4613;48.392;9.998;2023-07-09T11:50:45;1.83;;;1.60;;
9156;SDS011;4613;48.392;9.998;2023-07-09T11:53:47;2.80;;;1.73;;
9156;SDS011;4613;48.392;9.998;2023-07-09T11:56:39;3.00;;;1.73;;
9156;SDS011;4613;48.392;9.998;2023-07-09T11:59:29;1.90;;;1.53;;
9156;SDS011;4613;48.392;9.998;2023-07-09T12:02:18;1.97;;;1.70;;
9156;SDS011;4613;48.392;9.998;2023-07-09T12:05:10;2.47;;;1.73;;
9156;SDS011;4613;48.392;9.998;2023-07-09T12:07:59;1.70;;;1.60;;
9156;SDS011;4613;48.392;9.998;2023-07-09T12:10:48;1.63;;;1.53;;
9156;SDS011;4613;48.392;9.998;2023-07-09T12:13:38;2.07;;;1.87;;
9156;SDS011;4613;48.392;9.998;2023-07-09T12:16:29;1.93;;;1.83;;
9156;SDS011;4613;48.392;9.998;2023-07-09T12:19:23;2.00;;;1.80;;
9156;SDS011;4613;48.392;9.998;2023-07-09T12:22:17;2.70;;;1.43;;
9156;SDS011;4613;48.392;9.998;2023-07-09T12:25:17;2.23;;;1.90;;
9156;SDS011;4613;48.392;9.998;2023-07-09T12:28:16;1.73;;;1.60;;
9156;SDS011;4613;48.392;9.998;2023-07-09T12:31:13;1.63;;;1.50;;
9156;SDS011;4613;48.392;9.998;2023-07-09T12:34:04;1.80;;;1.50;;
9156;SDS011;4613;48.392;9.998;2023-07-09T12:36:53;2.13;;;1.50;;
9156;SDS011;4613;48.392;9.998;2023-07-09T12:39:44;2.13;;;1.80;;
9156;SDS011;4613;48.392;9.998;2023-07-09T12:42:33;3.27;;;1.60;;
9156;SDS011;4613;48.392;9.998;2023-07-09T12:45:35;1.70;;;1.60;;
9156;SDS011;4613;48.392;9.998;2023-07-09T12:48:25;1.53;;;1.43;;
9156;SDS011;4613;48.392;9.998;2023-07-09T12:51:23;1.77;;;1.50;;
9156;SDS011;4613;48.392;9.998;2023-07-09T12:54:16;2.07;;;1.50;;
9156;SDS011;4613;48.392;9.998;2023-07-09T12:57:15;1.83;;;1.67;;
9156;SDS011;4613;48.392;9.998;2023-07-09T13:00:08;1.67;;;1.50;;
9156;SDS011;4613;48.392;9.998;2023-07-09T13:03:12;4.10;;;1.47;;
9156;SDS011;4613;48.392;9.998;2023-07-09T13:06:04;2.13;;;1.80;;
9156;SDS011;4613;48.392;9.998;2023-07-09T13:08:56;1.53;;;1.43;;
9156;SDS011;4613;48.392;9.998;2023-07-09T13:11:47;1.83;;;1.73;;
9156;SDS011;4613;48.392;9.998;2023-07-09T13:14:38;2.10;;;1.87;;
9156;SDS011;4613;48.392;9.998;2023-07-09T13:17:28;1.70;;;1.60;;
9156;SDS011;4613;48.392;9.998;2023-07-09T13:20:20;2.13;;;1.57;;
9156;SDS011;4613;48.392;9.998;2023-07-09T13:23:10;1.60;;;1.50;;
9156;SDS011;4613;48.392;9.998;2023-07-09T13:26:03;1.70;;;1.60;;
9156;SDS011;4613;48.392;9.998;2023-07-09T13:28:52;1.60;;;1.50;;
9156;SDS011;4613;48.392;9.998;2023-07-09T13:31:41;2.17;;;1.70;;
9156;SDS011;4613;48.392;9.998;2023-07-09T13:34:30;2.23;;;1.87;;
9156;SDS011;4613;48.392;9.998;2023-07-09T13:37:22;5.37;;;1.77;;
9156;SDS011;4613;48.392;9.998;2023-07-09T13:40:12;2.30;;;1.90;;
9156;SDS011;4613;48.392;9.998;2023-07-09T13:43:07;2.17;;;1.90;;
9156;SDS011;4613;48.392;9.998;2023-07-09T13:46:00;2.00;;;1.60;;
9156;SDS011;4613;48.392;9.998;2023-07-09T13:48:51;1.47;;;1.37;;
9156;SDS011;4613;48.392;9.998;2023-07-09T13:51:41;2.20;;;1.80;;
9156;SDS011;4613;48.392;9.998;2023-07-09T13:54:32;2.10;;;1.90;;
9156;SDS011;4613;48.392;9.998;2023-07-09T13:57:26;1.80;;;1.70;;
9156;SDS011;4613;48.392;9.998;2023-07-09T14:00:16;1.77;;;1.40;;
9156;SDS011;4613;48.392;9.998;2023-07-09T14:03:18;1.90;;;1.80;;
9156;SDS011;4613;48.392;9.998;2023-07-09T14:06:11;2.43;;;1.73;;
9156;SDS011;4613;48.392;9.998;2023-07-09T14:09:02;1.80;;;1.70;;
9156;SDS011;4613;48.392;9.998;2023-07-09T14:11:52;2.90;;;2.10;;
9156;SDS011;4613;48.392;9.998;2023-07-09T14:14:42;2.03;;;1.87;;
9156;SDS011;4613;48.392;9.998;2023-07-09T14:17:33;2.83;;;2.47;;
9156;SDS011;4613;48.392;9.998;2023-07-09T14:20:22;2.23;;;1.90;;
9156;SDS011;4613;48.392;9.998;2023-07-09T14:23:13;1.87;;;1.73;;
9156;SDS011;4613;48.392;9.998;2023-07-09T14:26:05;1.70;;;1.60;;
9156;SDS011;4613;48.392;9.998;2023-07-09T14:28:54;2.13;;;1.83;;
9156;SDS011;4613;48.392;9.998;2023-07-09T14:31:45;1.47;;;1.37;;
9156;SDS011;4613;48.392;9.998;2023-07-09T14:34:34;2.20;;;1.80;;
9156;SDS011;4613;48.392;9.998;2023-07-09T14:37:28;2.00;;;1.67;;
9156;SDS011;4613;48.392;9.998;2023-07-09T14:40:18;2.93;;;1.90;;
9156;SDS011;4613;48.392;9.998;2023-07-09T14:43:09;2.03;;;1.73;;
9156;SDS011;4613;48.392;9.998;2023-07-09T14:45:59;3.33;;;1.80;;
9156;SDS011;4613;48.392;9.998;2023-07-09T14:48:49;1.70;;;1.60;;
9156;SDS011;4613;48.392;9.998;2023-07-09T14:51:38;1.80;;;1.60;;
9156;SDS011;4613;48.392;9.998;2023-07-09T14:54:28;2.50;;;1.70;;
9156;SDS011;4613;48.392;9.998;2023-07-09T14:57:20;1.90;;;1.80;;
9156;SDS011;4613;48.392;9.998;2023-07-09T15:00:20;1.77;;;1.67;;
9156;SDS011;4613;48.392;9.998;2023-07-09T15:03:11;2.30;;;1.97;;
9156;SDS011;4613;48.392;9.998;2023-07-09T15:06:07;2.23;;;1.70;;
9156;SDS011;4613;48.392;9.998;2023-07-09T15:08:57;2.00;;;1.80;;
9156;SDS011;4613;48.392;9.998;2023-07-09T15:11:51;1.90;;;1.67;;
9156;SDS011;4613;48.392;9.998;2023-07-09T15:14:42;2.37;;;1.93;;
9156;SDS011;4613;48.392;9.998;2023-07-09T15:17:31;3.50;;;2.00;;
9156;SDS011;4613;48.392;9.998;2023-07-09T15:20:24;2.60;;;1.77;;
9156;SDS011;4613;48.392;9.998;2023-07-09T15:23:16;1.93;;;1.70;;
9156;SDS011;4613;48.392;9.998;2023-07-09T15:26:12;2.20;;;1.80;;
9156;SDS011;4613;48.392;9.998;2023-07-09T15:29:02;1.93;;;1.73;;
9156;SDS011;4613;48.392;9.998;2023-07-09T15:31:52;1.73;;;1.57;;
9156;SDS011;4613;48.392;9.998;2023-07-09T15:34:42;2.33;;;1.83;;
9156;SDS011;4613;48.392;9.998;2023-07-09T15:37:31;1.80;;;1.70;;
9156;SDS011;4613;48.392;9.998;2023-07-09T15:40:21;2.10;;;1.70;;
9156;SDS011;4613;48.392;9.998;2023-07-09T15:43:12;1.77;;;1.67;;
9156;SDS011;4613;48.392;9.998;2023-07-09T15:46:02;2.30;;;1.90;;
9156;SDS011;4613;48.392;9.998;2023-07-09T15:48:52;3.23;;;2.00;;
9156;SDS011;4613;48.392;9.998;2023-07-09T15:51:44;2.30;;;1.67;;
9156;SDS011;4613;48.392;9.998;2023-07-09T15:54:34;1.93;;;1.77;;
9156;SDS011;4613;48.392;9.998;2023-07-09T15:57:23;2.13;;;1.93;;
9156;SDS011;4613;48.392;9.998;2023-07-09T16:00:13;2.37;;;1.60;;
9156;SDS011;4613;48.392;9.998;2023-07-09T16:03:09;1.77;;;1.63;;
9156;SDS011;4613;48.392;9.998;2023-07-09T16:05:58;2.53;;;2.00;;
9156;SDS011;4613;48.392;9.998;2023-07-09T16:08:47;2.30;;;2.10;;
9156;SDS011;4613;48.392;9.998;2023-07-09T16:11:37;4.00;;;1.73;;
9156;SDS011;4613;48.392;9.998;2023-07-09T16:14:31;2.10;;;1.57;;
9156;SDS011;4613;48.392;9.998;2023-07-09T16:17:21;1.97;;;1.73;;
9156;SDS011;4613;48.392;9.998;2023-07-09T16:20:11;2.20;;;1.80;;
9156;SDS011;4613;48.392;9.998;2023-07-09T16:23:01;2.60;;;1.80;;
9156;SDS011;4613;48.392;9.998;2023-07-09T16:25:51;2.00;;;1.80;;
9156;SDS011;4613;48.392;9.998;2023-07-09T16:28:40;2.13;;;1.83;;
9156;SDS011;4613;48.392;9.998;2023-07-09T16:31:29;2.00;;;1.90;;
9156;SDS011;4613;48.392;9.998;2023-07-09T16:34:18;1.90;;;1.80;;
9156;SDS011;4613;48.392;9.998;2023-07-09T16:37:14;2.20;;;1.87;;
9156;SDS011;4613;48.392;9.998;2023-07-09T16:40:30;2.17;;;1.97;;
9156;SDS011;4613;48.392;9.998;2023-07-09T16:43:19;2.10;;;1.90;;
9156;SDS011;4613;48.392;9.998;2023-07-09T16:46:16;3.23;;;1.73;;
9156;SDS011;4613;48.392;9.998;2023-07-09T16:49:33;2.30;;;2.10;;
9156;SDS011;4613;48.392;9.998;2023-07-09T16:52:29;4.67;;;2.00;;
9156;SDS011;4613;48.392;9.998;2023-07-09T16:55:20;1.93;;;1.77;;
9156;SDS011;4613;48.392;9.998;2023-07-09T17:01:30;2.10;;;1.90;;
9156;SDS011;4613;48.392;9.998;2023-07-09T17:07:16;1.57;;;1.47;;
9156;SDS011;4613;48.392;9.998;2023-07-09T17:10:05;2.93;;;1.53;;
9156;SDS011;4613;48.392;9.998;2023-07-09T17:12:56;2.03;;;1.93;;
9156;SDS011;4613;48.392;9.998;2023-07-09T17:15:47;3.50;;;2.23;;
9156;SDS011;4613;48.392;9.998;2023-07-09T17:18:37;3.37;;;2.00;;
9156;SDS011;4613;48.392;9.998;2023-07-09T17:21:26;8.47;;;5.40;;
9156;SDS011;4613;48.392;9.998;2023-07-09T17:24:20;4.23;;;3.00;;
9156;SDS011;4613;48.392;9.998;2023-07-09T17:27:12;3.43;;;2.67;;
9156;SDS011;4613;48.392;9.998;2023-07-09T17:30:04;2.37;;;2.10;;
9156;SDS011;4613;48.392;9.998;2023-07-09T17:33:03;5.43;;;2.97;;
9156;SDS011;4613;48.392;9.998;2023-07-09T17:35:52;4.20;;;2.83;;
9156;SDS011;4613;48.392;9.998;2023-07-09T17:38:43;3.37;;;2.40;;
9156;SDS011;4613;48.392;9.998;2023-07-09T17:41:32;5.80;;;4.00;;
9156;SDS011;4613;48.392;9.998;2023-07-09T17:44:22;4.20;;;2.70;;
9156;SDS011;4613;48.392;9.998;2023-07-09T17:47:14;3.63;;;2.07;;
9156;SDS011;4613;48.392;9.998;2023-07-09T17:50:12;3.47;;;2.27;;
9156;SDS011;4613;48.392;9.998;2023-07-09T17:53:08;5.93;;;3.27;;
9156;SDS011;4613;48.392;9.998;2023-07-09T17:56:20;4.20;;;2.73;;
9156;SDS011;4613;48.392;9.998;2023-07-09T17:59:12;4.43;;;2.50;;
9156;SDS011;4613;48.392;9.998;2023-07-09T18:02:09;3.27;;;2.50;;
9156;SDS011;4613;48.392;9.998;2023-07-09T18:05:00;3.53;;;2.40;;
9156;SDS011;4613;48.392;9.998;2023-07-09T18:07:49;3.27;;;2.00;;
9156;SDS011;4613;48.392;9.998;2023-07-09T18:10:39;1.80;;;1.70;;
9156;SDS011;4613;48.392;9.998;2023-07-09T18:13:29;2.90;;;2.27;;
9156;SDS011;4613;48.392;9.998;2023-07-09T18:16:19;3.00;;;2.47;;
9156;SDS011;4613;48.392;9.998;2023-07-09T18:19:09;3.97;;;2.27;;
9156;SDS011;4613;48.392;9.998;2023-07-09T18:22:15;3.30;;;2.40;;
9156;SDS011;4613;48.392;9.998;2023-07-09T18:25:06;3.20;;;2.30;;